Time;durP1;ratioP1;P1;durP2;ratioP2;P2;SDS_P1;SDS_P2;PMS_P1;PMS_P2;Temp;Humidity;BMP_temperature;BMP_pressure;BME280_temperature;BME280_humidity;BME280_pressure;Samples;Min_cycle;Max_cycle;Signal;HPM_P1;HPM_P2
2024/01/19 00:04:53;;;;;;;0.53;0.53;;;2.90;99.90;;;;;;10491763;28;20230;-79
2024/01/19 00:09:57;;;;;;;0.40;0.40;;;3.00;99.90;;;;;;10491872;28;20216;-78
2024/01/19 00:14:59;;;;;;;0.60;0.60;;;3.00;99.90;;;;;;10485493;28;20196;-79
2024/01/19 00:20:01;;;;;;;0.40;0.40;;;3.00;99.90;;;;;;10482131;28;20223;-79
2024/01/19 00:25:06;;;;;;;0.60;0.60;;;3.00;99.90;;;;;;10465449;28;20550;-77
2024/01/19 00:30:09;;;;;;;0.50;0.50;;;3.00;99.90;;;;;;10490806;28;20732;-79
2024/01/19 00:35:12;;;;;;;0.40;0.40;;;3.00;99.90;;;;;;10499234;28;20204;-79
2024/01/19 00:40:16;;;;;;;0.40;0.40;;;3.00;99.90;;;;;;10502167;28;20556;-78
2024/01/19 00:45:18;;;;;;;0.50;0.50;;;3.10;99.90;;;;;;10503428;28;20674;-79
2024/01/19 00:50:21;;;;;;;0.40;0.40;;;3.00;99.90;;;;;;10502192;28;20212;-79
2024/01/19 00:55:24;;;;;;;0.40;0.40;;;3.00;99.90;;;;;;10497806;28;20208;-79
2024/01/19 01:00:28;;;;;;;0.40;0.40;;;3.00;99.90;;;;;;10499156;28;20216;-80
2024/01/19 01:05:30;;;;;;;0.40;0.40;;;3.00;99.90;;;;;;10528487;28;20204;-80
2024/01/19 01:10:34;;;;;;;0.33;0.33;;;3.00;99.90;;;;;;10554190;28;20204;-79
2024/01/19 01:15:36;;;;;;;0.40;0.40;;;3.00;99.90;;;;;;10542443;28;20211;-80
2024/01/19 01:20:39;;;;;;;0.30;0.30;;;3.00;99.90;;;;;;10523867;28;20223;-79
2024/01/19 01:25:43;;;;;;;0.33;0.33;;;3.00;99.90;;;;;;10517294;28;20301;-79
2024/01/19 01:30:45;;;;;;;0.40;0.40;;;3.00;99.90;;;;;;10500757;28;20209;-79
2024/01/19 01:35:47;;;;;;;0.40;0.40;;;3.00;99.90;;;;;;10522477;28;20203;-78
2024/01/19 01:40:51;;;;;;;0.40;0.40;;;3.00;99.90;;;;;;10542620;28;20231;-79
2024/01/19 01:45:54;;;;;;;0.40;0.40;;;3.00;99.90;;;;;;10538298;28;20224;-79
2024/01/19 01:50:57;;;;;;;0.40;0.40;;;3.00;99.90;;;;;;10491915;28;20213;-79
2024/01/19 01:56:01;;;;;;;0.40;0.40;;;3.00;99.90;;;;;;10456171;28;20521;-80
2024/01/19 02:01:04;;;;;;;0.40;0.40;;;3.00;99.90;;;;;;10493705;28;20285;-80
2024/01/19 02:06:06;;;;;;;0.40;0.40;;;3.00;99.90;;;;;;10490747;28;20201;-79
2024/01/19 02:11:10;;;;;;;0.40;0.40;;;3.00;99.90;;;;;;10518111;28;20208;-79
2024/01/19 02:16:12;;;;;;;0.40;0.40;;;3.00;99.90;;;;;;10539732;28;20222;-79
2024/01/19 02:21:16;;;;;;;0.30;0.30;;;3.00;99.90;;;;;;10533540;28;20231;-79
2024/01/19 02:26:20;;;;;;;0.33;0.33;;;2.90;99.90;;;;;;10514755;28;20690;-80
2024/01/19 02:31:22;;;;;;;0.40;0.40;;;2.90;99.90;;;;;;10518113;28;20520;-79
2024/01/19 02:36:25;;;;;;;0.40;0.40;;;2.90;99.90;;;;;;10525308;28;20200;-80
2024/01/19 02:41:28;;;;;;;0.40;0.40;;;2.80;99.90;;;;;;10535151;28;20219;-79
2024/01/19 02:46:31;;;;;;;0.40;0.40;;;2.80;99.90;;;;;;10529078;28;20731;-80
2024/01/19 02:51:33;;;;;;;0.37;0.37;;;2.80;99.90;;;;;;10522063;28;20204;-80
2024/01/19 02:56:37;;;;;;;0.40;0.40;;;2.80;99.90;;;;;;10521751;28;20200;-79
2024/01/19 03:01:39;;;;;;;0.40;0.40;;;2.80;99.90;;;;;;10531395;28;20211;-78
2024/01/19 03:06:41;;;;;;;0.40;0.40;;;2.80;99.90;;;;;;10486538;28;20247;-79
2024/01/19 03:11:45;;;;;;;0.40;0.40;;;2.80;99.90;;;;;;10491524;28;20604;-80
2024/01/19 03:16:47;;;;;;;0.40;0.40;;;2.80;99.90;;;;;;10524982;28;20227;-79
2024/01/19 03:21:50;;;;;;;0.50;0.50;;;2.70;99.90;;;;;;10515069;28;20192;-77
2024/01/19 03:26:54;;;;;;;0.40;0.40;;;2.60;99.90;;;;;;10507630;28;20219;-79
2024/01/19 03:31:56;;;;;;;0.40;0.40;;;2.50;99.90;;;;;;10509503;28;20625;-79
2024/01/19 03:37:03;;;;;;;0.40;0.40;;;2.40;99.90;;;;;;10509472;28;20219;-78
2024/01/19 03:42:06;;;;;;;0.40;0.40;;;2.30;99.90;;;;;;10510028;28;20196;-79
2024/01/19 03:47:09;;;;;;;0.40;0.40;;;2.30;99.90;;;;;;10539242;28;20226;-79
2024/01/19 03:52:11;;;;;;;0.50;0.50;;;2.30;99.90;;;;;;10505973;28;20253;-80
2024/01/19 03:57:15;;;;;;;0.50;0.50;;;2.30;99.90;;;;;;10496536;28;20716;-80
2024/01/19 04:02:18;;;;;;;0.40;0.40;;;2.30;99.90;;;;;;10495286;28;20195;-79
2024/01/19 04:07:20;;;;;;;0.80;0.80;;;2.30;99.90;;;;;;10506558;28;20215;-80
2024/01/19 04:12:23;;;;;;;0.80;0.80;;;2.30;99.90;;;;;;10480015;28;20201;-80
2024/01/19 04:17:26;;;;;;;0.67;0.67;;;2.30;99.90;;;;;;10455111;28;20290;-79
2024/01/19 04:22:28;;;;;;;0.80;0.80;;;2.30;99.90;;;;;;10497768;28;20188;-79
2024/01/19 04:27:32;;;;;;;0.70;0.70;;;2.30;99.90;;;;;;10539997;28;20216;-79
2024/01/19 04:32:34;;;;;;;0.63;0.63;;;2.30;99.90;;;;;;10516478;28;20592;-79
2024/01/19 04:37:36;;;;;;;0.80;0.80;;;2.30;99.90;;;;;;10497449;28;20212;-79
2024/01/19 04:42:40;;;;;;;0.50;0.50;;;2.20;99.90;;;;;;10504790;28;20200;-79
2024/01/19 04:47:42;;;;;;;0.70;0.70;;;2.10;99.90;;;;;;10478041;28;20205;-79
2024/01/19 04:52:45;;;;;;;0.73;0.73;;;2.00;99.90;;;;;;10494589;28;20203;-79
2024/01/19 04:57:48;;;;;;;0.60;0.60;;;2.00;99.90;;;;;;10474614;28;20265;-80
2024/01/19 05:02:51;;;;;;;0.80;0.80;;;2.00;99.90;;;;;;10488356;28;20197;-79
2024/01/19 05:07:54;;;;;;;0.80;0.80;;;2.00;99.90;;;;;;10483154;28;20242;-79
2024/01/19 05:12:57;;;;;;;0.70;0.70;;;1.90;99.90;;;;;;10463644;28;20196;-78
2024/01/19 05:18:00;;;;;;;0.70;0.70;;;1.90;99.90;;;;;;10492990;28;20216;-78
2024/01/19 05:23:03;;;;;;;0.87;0.87;;;1.90;99.90;;;;;;10502256;28;20192;-79
2024/01/19 05:28:07;;;;;;;0.90;0.90;;;1.90;99.90;;;;;;10495194;28;20219;-78
2024/01/19 05:33:09;;;;;;;0.90;0.90;;;2.00;99.90;;;;;;10494241;28;20664;-79
2024/01/19 05:38:12;;;;;;;0.60;0.60;;;2.00;99.90;;;;;;10481275;28;20228;-77
2024/01/19 05:43:15;;;;;;;0.63;0.63;;;1.90;99.90;;;;;;10507432;28;20197;-78
2024/01/19 05:48:18;;;;;;;0.70;0.70;;;1.90;99.90;;;;;;10505068;28;20704;-78
2024/01/19 05:53:20;;;;;;;0.40;0.40;;;1.90;99.90;;;;;;10465499;28;20204;-78
2024/01/19 05:58:24;;;;;;;0.50;0.50;;;1.90;99.90;;;;;;10469445;28;20568;-79
2024/01/19 06:03:26;;;;;;;0.50;0.50;;;1.80;99.90;;;;;;10487946;28;20203;-77
2024/01/19 06:08:29;;;;;;;0.60;0.60;;;1.90;99.90;;;;;;10485918;28;20212;-78
2024/01/19 06:13:33;;;;;;;0.50;0.50;;;1.90;99.90;;;;;;10486665;28;20195;-78
2024/01/19 06:18:35;;;;;;;0.57;0.57;;;1.90;99.90;;;;;;10485868;28;20231;-78
2024/01/19 06:23:38;;;;;;;0.50;0.50;;;1.90;99.90;;;;;;10484981;28;20196;-77
2024/01/19 06:28:42;;;;;;;0.50;0.50;;;1.90;99.90;;;;;;10472808;28;20585;-78
2024/01/19 06:33:46;;;;;;;0.53;0.53;;;1.90;99.90;;;;;;10473629;28;20191;-78
2024/01/19 06:38:48;;;;;;;0.60;0.60;;;2.00;99.90;;;;;;10472260;28;20641;-79
2024/01/19 06:43:52;;;;;;;0.50;0.50;;;2.00;99.90;;;;;;10479664;28;20188;-77
2024/01/19 06:48:54;;;;;;;0.10;0.10;;;2.00;99.90;;;;;;10479680;28;20207;-78
2024/01/19 06:53:57;;;;;;;0.47;0.47;;;2.00;99.90;;;;;;10478690;28;20192;-79
2024/01/19 06:59:01;;;;;;;0.60;0.60;;;2.00;99.90;;;;;;10477162;28;20216;-79
2024/01/19 07:04:03;;;;;;;0.60;0.60;;;1.90;99.90;;;;;;10476160;28;20712;-77
2024/01/19 07:09:06;;;;;;;0.60;0.60;;;1.90;99.90;;;;;;10475301;28;20219;-78
2024/01/19 07:14:10;;;;;;;0.50;0.50;;;1.90;99.90;;;;;;10475107;28;20188;-78
2024/01/19 07:19:12;;;;;;;0.10;0.10;;;1.90;99.90;;;;;;10473648;28;20223;-76
2024/01/19 07:24:15;;;;;;;0.60;0.60;;;1.90;99.90;;;;;;10478778;28;20189;-78
2024/01/19 07:29:19;;;;;;;0.23;0.23;;;1.90;99.90;;;;;;10478627;28;20224;-78
2024/01/19 07:34:21;;;;;;;0.40;0.40;;;1.80;99.90;;;;;;10471129;28;20204;-78
2024/01/19 07:39:26;;;;;;;0.63;0.63;;;1.80;99.90;;;;;;10467854;28;20240;-78
2024/01/19 07:44:29;;;;;;;0.40;0.40;;;1.80;99.90;;;;;;10465039;28;20247;-77
2024/01/19 07:49:32;;;;;;;0.50;0.50;;;1.70;99.90;;;;;;10465929;28;20554;-76
2024/01/19 07:54:34;;;;;;;0.43;0.43;;;1.70;99.90;;;;;;10456394;28;20243;-79
2024/01/19 07:59:38;;;;;;;0.60;0.60;;;1.70;99.90;;;;;;10463986;28;20217;-78
2024/01/19 08:04:40;;;;;;;0.70;0.70;;;1.70;99.90;;;;;;10462663;28;20196;-77
2024/01/19 08:09:42;;;;;;;0.30;0.30;;;1.70;99.90;;;;;;10476631;28;20289;-78
2024/01/19 08:14:46;;;;;;;0.40;0.40;;;1.80;99.90;;;;;;10489414;28;20197;-78
2024/01/19 08:19:49;;;;;;;0.50;0.50;;;1.80;99.90;;;;;;10448628;28;20225;-78
2024/01/19 08:24:51;;;;;;;0.40;0.40;;;1.80;99.90;;;;;;10460066;28;20610;-76
2024/01/19 08:29:55;;;;;;;0.53;0.53;;;1.80;99.90;;;;;;10459472;28;20247;-78
2024/01/19 08:34:57;;;;;;;0.47;0.47;;;1.80;99.90;;;;;;10461631;28;20223;-76
2024/01/19 08:39:59;;;;;;;0.40;0.40;;;1.80;99.90;;;;;;10457684;28;20240;-77
2024/01/19 08:45:03;;;;;;;0.30;0.30;;;1.90;99.90;;;;;;10455550;28;20193;-78
2024/01/19 08:50:07;;;;;;;0.40;0.40;;;1.90;99.90;;;;;;10456084;28;20201;-77
2024/01/19 08:55:09;;;;;;;0.30;0.30;;;1.90;99.90;;;;;;10456849;28;20197;-78
2024/01/19 09:00:14;;;;;;;0.50;0.50;;;1.90;99.90;;;;;;10462493;28;20278;-77
2024/01/19 09:05:17;;;;;;;0.30;0.30;;;1.90;99.90;;;;;;10460864;28;20280;-77
2024/01/19 09:10:20;;;;;;;0.30;0.30;;;2.00;99.90;;;;;;10460406;28;20267;-78
2024/01/19 09:15:23;;;;;;;0.30;0.30;;;2.00;99.90;;;;;;10494932;28;20670;-78
2024/01/19 09:20:26;;;;;;;0.40;0.40;;;2.00;99.90;;;;;;10503294;28;20220;-78
2024/01/19 09:25:28;;;;;;;0.30;0.30;;;2.00;99.90;;;;;;10479324;28;20253;-77
2024/01/19 09:30:32;;;;;;;0.30;0.30;;;2.10;99.90;;;;;;10491442;28;20219;-78
2024/01/19 09:35:35;;;;;;;0.40;0.40;;;2.20;99.90;;;;;;10484216;28;20208;-78
2024/01/19 09:40:39;;;;;;;0.30;0.30;;;2.30;99.90;;;;;;10483332;28;20286;-78
2024/01/19 09:45:48;;;;;;;0.27;0.27;;;2.40;99.90;;;;;;10495983;28;20197;-79
2024/01/19 09:50:53;;;;;;;0.40;0.40;;;2.30;99.90;;;;;;10486999;28;20212;-78
2024/01/19 09:55:55;;;;;;;0.37;0.37;;;2.30;99.90;;;;;;10482099;28;20605;-80
2024/01/19 10:01:01;;;;;;;0.30;0.30;;;2.40;99.90;;;;;;10479887;28;20240;-79
2024/01/19 10:06:04;;;;;;;0.20;0.20;;;2.50;99.90;;;;;;10455627;28;20629;-77
2024/01/19 10:11:09;;;;;;;0.30;0.30;;;2.60;99.90;;;;;;10489415;28;20602;-78
2024/01/19 10:16:13;;;;;;;0.40;0.40;;;2.90;99.90;;;;;;10492046;28;20250;-76
2024/01/19 10:21:26;;;;;;;0.30;0.30;;;3.00;99.90;;;;;;10488138;28;20216;-77
2024/01/19 10:26:28;;;;;;;0.20;0.20;;;3.00;99.90;;;;;;10503221;28;20204;-76
2024/01/19 10:31:32;;;;;;;0.30;0.30;;;3.10;99.90;;;;;;10486965;28;20205;-77
2024/01/19 10:36:38;;;;;;;0.00;0.00;;;3.20;99.90;;;;;;10492099;28;20652;-76
2024/01/19 10:41:40;;;;;;;0.20;0.20;;;3.30;99.90;;;;;;10498581;28;20649;-76
2024/01/19 10:46:44;;;;;;;0.30;0.30;;;3.20;99.90;;;;;;10485887;28;20232;-77
2024/01/19 10:51:47;;;;;;;0.30;0.30;;;3.20;99.90;;;;;;10482165;28;20204;-77
2024/01/19 10:56:50;;;;;;;0.30;0.30;;;3.20;99.90;;;;;;10487828;28;20220;-79
2024/01/19 11:01:59;;;;;;;0.30;0.30;;;3.20;99.90;;;;;;10500277;28;20216;-77
2024/01/19 11:07:03;;;;;;;0.30;0.30;;;3.20;99.90;;;;;;10486032;28;20217;-78
2024/01/19 11:12:10;;;;;;;0.20;0.20;;;3.30;99.90;;;;;;10496358;28;20199;-77
2024/01/19 11:17:14;;;;;;;0.30;0.30;;;3.40;99.90;;;;;;10505537;22;20228;-78
2024/01/19 11:22:16;;;;;;;0.30;0.30;;;3.60;99.90;;;;;;10403410;28;20226;-77
2024/01/19 11:27:27;;;;;;;0.30;0.30;;;3.60;99.90;;;;;;10404008;28;20195;-80
2024/01/19 11:32:30;;;;;;;0.40;0.40;;;3.70;99.90;;;;;;10404155;28;20691;-79
2024/01/19 11:37:46;;;;;;;0.00;0.00;;;3.70;99.90;;;;;;10404867;28;20284;-79
2024/01/19 11:42:49;;;;;;;0.40;0.40;;;3.70;99.90;;;;;;10401246;28;20233;-79
2024/01/19 11:47:52;;;;;;;0.30;0.30;;;3.80;99.90;;;;;;10407920;28;20241;-79
2024/01/19 11:52:55;;;;;;;0.30;0.30;;;3.90;99.90;;;;;;10404457;28;20195;-78
2024/01/19 11:58:18;;;;;;;0.20;0.20;;;4.20;99.90;;;;;;10402119;28;20214;-80
2024/01/19 12:03:22;;;;;;;0.20;0.20;;;4.40;99.50;;;;;;10402534;28;20303;-78
2024/01/19 12:08:25;;;;;;;0.20;0.20;;;4.70;99.60;;;;;;10397400;28;20211;-78
2024/01/19 12:13:31;;;;;;;0.40;0.40;;;5.00;99.00;;;;;;10406452;28;20268;-78
2024/01/19 12:18:36;;;;;;;0.20;0.20;;;5.30;98.00;;;;;;10400896;28;20230;-79
2024/01/19 12:23:39;;;;;;;0.20;0.20;;;5.40;97.40;;;;;;10407698;28;20698;-80
2024/01/19 12:28:41;;;;;;;0.40;0.40;;;5.30;96.80;;;;;;10398938;28;20237;-79
2024/01/19 12:33:45;;;;;;;0.33;0.33;;;5.20;96.60;;;;;;10408263;28;20198;-79
2024/01/19 12:39:00;;;;;;;0.30;0.30;;;5.10;95.50;;;;;;10400768;28;20731;-80
2024/01/19 12:44:03;;;;;;;0.30;0.30;;;4.90;95.10;;;;;;10420810;28;20247;-78
2024/01/19 12:49:07;;;;;;;0.10;0.10;;;4.70;94.90;;;;;;10398902;28;20367;-77
2024/01/19 12:54:12;;;;;;;0.40;0.40;;;4.50;95.00;;;;;;10409097;28;20201;-80
2024/01/19 12:59:19;;;;;;;0.30;0.30;;;4.40;95.30;;;;;;10398837;28;20268;-78
2024/01/19 13:04:23;;;;;;;0.30;0.30;;;4.30;95.50;;;;;;10401746;28;20271;-78
2024/01/19 13:09:25;;;;;;;0.30;0.30;;;4.40;96.10;;;;;;10398998;28;20214;-77
2024/01/19 13:14:28;;;;;;;0.30;0.30;;;4.40;96.40;;;;;;10403280;28;20240;-78
2024/01/19 13:19:42;;;;;;;0.30;0.30;;;4.40;96.10;;;;;;10399155;28;20237;-79
2024/01/19 13:24:46;;;;;;;0.40;0.40;;;4.40;96.50;;;;;;10402653;28;20668;-79
2024/01/19 13:29:48;;;;;;;0.30;0.30;;;4.40;96.60;;;;;;10390985;28;20233;-80
2024/01/19 13:34:52;;;;;;;0.30;0.30;;;4.50;96.60;;;;;;10403413;28;20213;-79
2024/01/19 13:39:57;;;;;;;0.17;0.17;;;4.60;96.50;;;;;;10397829;28;20229;-79
2024/01/19 13:45:01;;;;;;;0.20;0.20;;;4.60;96.40;;;;;;10410615;28;20206;-79
2024/01/19 13:50:06;;;;;;;0.37;0.37;;;4.60;96.20;;;;;;10401236;28;20238;-79
2024/01/19 13:55:09;;;;;;;0.20;0.20;;;4.50;96.20;;;;;;10426633;28;20210;-79
2024/01/19 14:00:12;;;;;;;0.40;0.40;;;4.40;96.40;;;;;;10402912;28;20218;-78
2024/01/19 14:05:16;;;;;;;0.30;0.30;;;4.40;96.60;;;;;;10393855;28;20260;-80
2024/01/19 14:10:18;;;;;;;0.40;0.40;;;4.40;96.70;;;;;;10419638;28;20226;-79
2024/01/19 14:15:21;;;;;;;0.30;0.30;;;4.40;96.60;;;;;;10394389;28;20190;-80
2024/01/19 14:20:24;;;;;;;0.30;0.30;;;4.20;96.50;;;;;;10401613;28;20233;-80
2024/01/19 14:25:27;;;;;;;0.27;0.27;;;4.20;96.60;;;;;;10396184;28;20693;-79
2024/01/19 14:30:29;;;;;;;0.20;0.20;;;4.20;96.50;;;;;;10403326;28;20221;-79
2024/01/19 14:35:33;;;;;;;0.43;0.43;;;4.20;96.40;;;;;;10397566;28;20202;-80
2024/01/19 14:40:36;;;;;;;0.40;0.40;;;4.20;96.60;;;;;;10404024;28;20221;-80
2024/01/19 14:45:39;;;;;;;0.50;0.50;;;4.20;96.50;;;;;;10395246;28;20687;-79
2024/01/19 14:50:43;;;;;;;0.40;0.40;;;4.10;96.40;;;;;;10396181;28;20215;-78
2024/01/19 14:55:45;;;;;;;0.50;0.50;;;4.00;96.50;;;;;;10376611;28;20198;-79
2024/01/19 15:00:48;;;;;;;0.40;0.40;;;3.80;96.70;;;;;;10375472;28;20230;-79
2024/01/19 15:05:52;;;;;;;0.40;0.40;;;3.70;96.60;;;;;;10376035;28;20202;-79
2024/01/19 15:10:54;;;;;;;0.40;0.40;;;3.50;96.80;;;;;;10376771;28;20210;-79
2024/01/19 15:15:57;;;;;;;0.40;0.40;;;3.50;97.10;;;;;;10391834;28;20199;-80
2024/01/19 15:21:01;;;;;;;0.30;0.30;;;3.50;97.20;;;;;;10382016;28;20255;-79
2024/01/19 15:26:03;;;;;;;0.40;0.40;;;3.50;97.40;;;;;;10415350;28;20202;-80
2024/01/19 15:31:06;;;;;;;0.30;0.30;;;3.40;97.40;;;;;;10390149;28;20225;-80
2024/01/19 15:36:11;;;;;;;0.40;0.40;;;3.40;97.30;;;;;;10401403;28;20198;-78
2024/01/19 15:41:21;;;;;;;0.50;0.50;;;3.40;97.30;;;;;;10386561;28;20696;-77
2024/01/19 15:46:24;;;;;;;0.30;0.30;;;3.20;97.30;;;;;;10399647;28;20206;-80
2024/01/19 15:51:29;;;;;;;0.40;0.40;;;3.10;97.20;;;;;;10390031;28;20213;-78
2024/01/19 15:56:32;;;;;;;0.40;0.40;;;3.00;97.40;;;;;;10399929;28;20202;-80
2024/01/19 16:01:38;;;;;;;0.20;0.20;;;3.00;97.30;;;;;;10390436;28;20233;-81
2024/01/19 16:06:42;;;;;;;0.30;0.30;;;3.00;97.90;;;;;;10400161;28;20680;-81
2024/01/19 16:11:48;;;;;;;0.40;0.40;;;2.90;98.10;;;;;;10394311;28;20267;-81
2024/01/19 16:16:51;;;;;;;0.40;0.40;;;2.90;98.10;;;;;;10395173;28;20206;-81
2024/01/19 16:21:56;;;;;;;0.43;0.43;;;2.80;98.00;;;;;;10393890;28;20695;-81
2024/01/19 16:26:58;;;;;;;0.40;0.40;;;2.80;98.10;;;;;;10394667;28;20677;-81
2024/01/19 16:32:01;;;;;;;0.10;0.10;;;2.80;98.10;;;;;;10396269;28;20222;-79
2024/01/19 16:37:05;;;;;;;0.40;0.40;;;2.70;98.00;;;;;;10397088;28;20307;-79
2024/01/19 16:42:09;;;;;;;0.50;0.50;;;2.60;98.20;;;;;;10381915;28;20760;-81
2024/01/19 16:47:11;;;;;;;0.50;0.50;;;2.60;98.00;;;;;;10396174;28;20206;-79
2024/01/19 16:52:15;;;;;;;0.40;0.40;;;2.60;98.50;;;;;;10404878;28;20190;-76
2024/01/19 16:57:17;;;;;;;0.50;0.50;;;2.60;98.20;;;;;;10395570;28;20203;-79
2024/01/19 17:02:20;;;;;;;0.40;0.40;;;2.60;97.90;;;;;;10407976;28;20517;-80
2024/01/19 17:07:23;;;;;;;0.07;0.07;;;2.60;98.10;;;;;;10398720;28;20194;-78
2024/01/19 17:12:26;;;;;;;0.30;0.30;;;2.60;98.00;;;;;;10406630;28;20186;-78
2024/01/19 17:17:28;;;;;;;0.50;0.50;;;2.60;97.90;;;;;;10405354;28;20233;-80
2024/01/19 17:22:32;;;;;;;0.50;0.50;;;2.60;98.00;;;;;;10413567;28;20252;-81
2024/01/19 17:27:34;;;;;;;0.40;0.40;;;2.60;97.50;;;;;;10406717;28;20256;-80
2024/01/19 17:32:37;;;;;;;0.30;0.30;;;2.50;97.50;;;;;;10417098;28;20206;-79
2024/01/19 17:37:40;;;;;;;0.27;0.27;;;2.50;97.80;;;;;;10401010;28;20210;-78
2024/01/19 17:42:43;;;;;;;0.50;0.50;;;2.50;97.40;;;;;;10399439;28;20253;-80
2024/01/19 17:47:45;;;;;;;0.40;0.40;;;2.50;97.50;;;;;;10403118;28;20220;-80
2024/01/19 17:52:50;;;;;;;0.40;0.40;;;2.40;97.00;;;;;;10401591;28;20202;-80
2024/01/19 17:57:52;;;;;;;0.50;0.50;;;2.30;96.60;;;;;;10403270;28;20221;-79
2024/01/19 18:02:55;;;;;;;0.40;0.40;;;2.30;96.90;;;;;;10399639;28;20231;-81
2024/01/19 18:07:58;;;;;;;0.40;0.40;;;2.30;97.30;;;;;;10402352;28;20245;-80
2024/01/19 18:13:01;;;;;;;0.10;0.10;;;2.30;97.20;;;;;;10402901;28;20199;-78
2024/01/19 18:18:04;;;;;;;0.20;0.20;;;2.30;97.00;;;;;;10407511;28;20224;-78
2024/01/19 18:23:08;;;;;;;0.40;0.40;;;2.30;97.00;;;;;;10406163;28;20272;-80
2024/01/19 18:28:10;;;;;;;0.40;0.40;;;2.30;97.50;;;;;;10406364;28;20218;-80
2024/01/19 18:33:12;;;;;;;0.40;0.40;;;2.30;97.50;;;;;;10406759;28;20272;-80
2024/01/19 18:38:16;;;;;;;0.10;0.10;;;2.30;97.50;;;;;;10421690;28;20217;-78
2024/01/19 18:43:19;;;;;;;0.30;0.30;;;2.40;99.90;;;;;;10408425;28;20239;-78
2024/01/19 18:48:21;;;;;;;0.40;0.40;;;2.40;99.90;;;;;;10405341;28;20484;-78
2024/01/19 18:53:25;;;;;;;0.40;0.40;;;2.40;99.90;;;;;;10407796;28;20681;-80
2024/01/19 18:58:27;;;;;;;0.20;0.20;;;2.40;99.70;;;;;;10405812;28;20222;-79
2024/01/19 19:03:29;;;;;;;0.40;0.40;;;2.40;99.70;;;;;;10406413;28;20210;-80
2024/01/19 19:08:33;;;;;;;0.30;0.30;;;2.40;99.40;;;;;;10407462;28;20638;-79
2024/01/19 19:13:35;;;;;;;0.33;0.33;;;2.40;98.70;;;;;;10396819;28;20210;-79
2024/01/19 19:18:38;;;;;;;0.30;0.30;;;2.30;98.90;;;;;;10403333;28;20670;-80
2024/01/19 19:23:42;;;;;;;0.40;0.40;;;2.30;98.60;;;;;;10391341;28;20221;-78
2024/01/19 19:28:45;;;;;;;0.20;0.20;;;2.20;98.30;;;;;;10406786;28;20579;-81
2024/01/19 19:33:47;;;;;;;0.40;0.40;;;2.10;98.40;;;;;;10386999;28;20198;-78
2024/01/19 19:38:51;;;;;;;0.40;0.40;;;2.00;99.40;;;;;;10401427;28;20229;-79
2024/01/19 19:43:53;;;;;;;0.20;0.20;;;1.90;99.90;;;;;;10391650;28;20656;-81
2024/01/19 19:48:56;;;;;;;0.30;0.30;;;1.80;99.90;;;;;;10403817;28;20236;-79
2024/01/19 19:54:00;;;;;;;0.40;0.40;;;1.80;99.90;;;;;;10392452;28;20198;-77
2024/01/19 19:59:02;;;;;;;0.50;0.50;;;1.70;99.90;;;;;;10390707;28;20230;-77
2024/01/19 20:04:05;;;;;;;0.20;0.20;;;1.60;99.90;;;;;;10389134;28;20221;-79
2024/01/19 20:09:08;;;;;;;0.40;0.40;;;1.50;99.90;;;;;;10389314;28;20234;-78
2024/01/19 20:14:11;;;;;;;0.50;0.50;;;1.50;99.90;;;;;;10391682;28;20252;-79
2024/01/19 20:19:13;;;;;;;0.50;0.50;;;1.40;99.90;;;;;;10382996;28;20250;-79
2024/01/19 20:24:17;;;;;;;0.50;0.50;;;1.50;99.90;;;;;;10386888;28;20226;-78
2024/01/19 20:29:20;;;;;;;0.40;0.40;;;1.50;99.90;;;;;;10392592;28;20273;-77
2024/01/19 20:34:22;;;;;;;0.50;0.50;;;1.50;99.90;;;;;;10393502;28;20197;-78
2024/01/19 20:39:26;;;;;;;0.40;0.40;;;1.50;99.90;;;;;;10392921;28;20280;-77
2024/01/19 20:44:29;;;;;;;0.40;0.40;;;1.40;99.90;;;;;;10391765;28;20229;-76
2024/01/19 20:49:31;;;;;;;0.50;0.50;;;1.30;99.90;;;;;;10398147;28;20253;-77
2024/01/19 20:54:35;;;;;;;0.50;0.50;;;1.40;99.90;;;;;;10399484;28;20243;-78
2024/01/19 20:59:37;;;;;;;0.40;0.40;;;1.50;99.90;;;;;;10401442;28;20299;-79
2024/01/19 21:04:40;;;;;;;0.40;0.40;;;1.60;99.90;;;;;;10402851;28;20234;-77
2024/01/19 21:09:44;;;;;;;0.50;0.50;;;1.60;99.90;;;;;;10407091;28;20687;-77
2024/01/19 21:14:47;;;;;;;0.37;0.37;;;1.60;99.90;;;;;;10403876;28;20198;-79
2024/01/19 21:19:49;;;;;;;0.40;0.40;;;1.70;99.90;;;;;;10415602;28;20214;-78
2024/01/19 21:24:53;;;;;;;0.40;0.40;;;1.70;99.90;;;;;;10405676;28;20709;-79
2024/01/19 21:29:58;;;;;;;0.40;0.40;;;1.80;99.90;;;;;;10414147;28;20252;-77
2024/01/19 21:35:00;;;;;;;0.30;0.30;;;1.80;99.90;;;;;;10400154;28;20229;-77
2024/01/19 21:40:05;;;;;;;0.20;0.20;;;1.70;99.90;;;;;;10392399;28;20627;-79
2024/01/19 21:45:08;;;;;;;0.30;0.30;;;1.70;99.90;;;;;;10398676;28;20536;-78
2024/01/19 21:50:11;;;;;;;0.40;0.40;;;1.80;99.90;;;;;;10358754;28;20218;-78
2024/01/19 21:55:15;;;;;;;0.20;0.20;;;1.80;99.90;;;;;;10392838;28;20202;-79
2024/01/19 22:00:17;;;;;;;0.20;0.20;;;1.90;99.90;;;;;;10389050;28;20214;-79
2024/01/19 22:05:20;;;;;;;0.40;0.40;;;1.90;99.90;;;;;;10399962;28;20260;-81
2024/01/19 22:10:24;;;;;;;0.40;0.40;;;1.90;99.90;;;;;;10391863;28;20230;-80
2024/01/19 22:15:26;;;;;;;0.40;0.40;;;2.00;99.90;;;;;;10407407;28;20198;-78
2024/01/19 22:20:29;;;;;;;0.30;0.30;;;2.00;99.90;;;;;;10392278;28;20279;-79
2024/01/19 22:25:33;;;;;;;0.40;0.40;;;2.00;99.90;;;;;;10405208;28;20225;-78
2024/01/19 22:30:36;;;;;;;0.30;0.30;;;2.00;99.90;;;;;;10390670;28;20363;-78
2024/01/19 22:35:38;;;;;;;0.30;0.30;;;1.80;99.90;;;;;;10407703;28;20206;-78
2024/01/19 22:40:42;;;;;;;0.37;0.37;;;1.80;99.90;;;;;;10386136;28;20229;-80
2024/01/19 22:45:44;;;;;;;0.30;0.30;;;1.70;99.90;;;;;;10410417;28;20675;-80
2024/01/19 22:50:47;;;;;;;0.30;0.30;;;1.70;99.90;;;;;;10400233;28;20231;-78
2024/01/19 22:55:50;;;;;;;0.40;0.40;;;1.70;99.90;;;;;;10408923;28;20186;-79
2024/01/19 23:00:53;;;;;;;0.40;0.40;;;1.70;99.90;;;;;;10399148;28;20223;-78
2024/01/19 23:05:55;;;;;;;0.30;0.30;;;1.70;99.90;;;;;;10415744;28;20226;-77
2024/01/19 23:10:59;;;;;;;0.43;0.43;;;1.60;99.90;;;;;;10402269;28;20265;-79
2024/01/19 23:16:02;;;;;;;0.30;0.30;;;1.70;99.90;;;;;;10412656;28;20751;-80
2024/01/19 23:21:05;;;;;;;0.30;0.30;;;1.70;99.90;;;;;;10400822;28;20234;-79
2024/01/19 23:26:09;;;;;;;0.50;0.50;;;1.70;99.90;;;;;;10413005;28;20230;-78
2024/01/19 23:31:12;;;;;;;0.50;0.50;;;1.70;99.90;;;;;;10399007;28;20226;-79
2024/01/19 23:36:15;;;;;;;0.50;0.50;;;1.60;99.60;;;;;;10410693;28;20229;-80
2024/01/19 23:41:19;;;;;;;0.40;0.40;;;1.60;99.80;;;;;;10402619;28;20305;-80
2024/01/19 23:46:21;;;;;;;0.40;0.40;;;1.60;99.80;;;;;;10403919;28;20219;-79
2024/01/19 23:51:24;;;;;;;0.40;0.40;;;1.50;99.10;;;;;;10411253;28;20226;-79
2024/01/19 23:56:28;;;;;;;0.43;0.43;;;1.30;99.90;;;;;;10411886;28;20195;-80
